Rangoon, Burma
Current Conditions -  °F | °C
As of 12:00 AM on Thursday 29 Jan 2015 (Local Time) from VYYY Reporting Station
Clear Clear  
Wind Chill: 70°   Ceiling: Unl
Heat Index: 70°   Visibility: 4mi
Dew Point: 61°   Wind: 2mph
Humidity: 73%   Direction: 210°SSW
Pressure: 29.91"   Gusts: NA
Location:  16.79°N, 96.15°E
Report Text: VYYY 281800Z 21002KT 7000 R21/2000N NSC 21/16 Q1013 NOSIG
Loading
Personal Weather Stations






























Interactive Weather Map New forecast layout! Learn more

10-Day Weather Forecast

Advertisements
Track Severe Weather on mobile